Time;durP1;ratioP1;P1;durP2;ratioP2;P2;SDS_P1;SDS_P2;PMS_P1;PMS_P2;Temp;Humidity;BMP_temperature;BMP_pressure;BME280_temperature;BME280_humidity;BME280_pressure;Samples;Min_cycle;Max_cycle;Signal;HPM_P1;HPM_P2
2020/12/21 00:01:38;;;;;;;38.97;18.20;;;7.70;99.90;;;;;;4920215;28;20846;-86
2020/12/21 00:04:10;;;;;;;39.17;16.87;;;7.70;99.90;;;;;;4936578;28;20440;-85
2020/12/21 00:06:45;;;;;;;46.80;17.63;;;7.80;99.90;;;;;;4949102;28;20423;-83
2020/12/21 00:10:04;;;;;;;39.90;18.70;;;7.80;99.90;;;;;;4931202;28;20520;-84
2020/12/21 00:23:58;;;;;;;41.87;17.80;;;7.90;99.90;;;;;;4890834;29;20448;-81
2020/12/21 00:48:59;;;;;;;39.63;19.73;;;8.00;99.90;;;;;;4819347;29;20434;-83
2020/12/21 00:51:52;;;;;;;;;;;;;;;;;;;;;
2020/12/21 01:02:33;;;;;;;;;;;;;;;;;;;;;
2020/12/21 01:13:13;;;;;;;36.87;18.80;;;7.80;99.90;;;;;;4784403;29;20525;-85
2020/12/21 01:23:13;;;;;;;44.77;19.53;;;7.70;99.90;;;;;;4767163;29;20949;-86
2020/12/21 01:25:39;;;;;;;41.80;21.00;;;7.60;99.90;;;;;;4777435;29;20476;-84
2020/12/21 01:39:48;;;;;;;28.37;17.60;;;7.50;99.90;;;;;;4817512;29;21061;-83
2020/12/21 02:01:06;;;;;;;;;;;;;;;;;;;;;
2020/12/21 02:04:28;;;;;;;38.03;18.80;;;7.10;99.90;;;;;;4867524;28;20449;-85
2020/12/21 02:24:03;;;;;;;;;;;;;;;;;;;;;
2020/12/21 02:37:37;;;;;;;32.70;19.20;;;7.10;99.90;;;;;;4941631;28;20444;-85
2020/12/21 02:44:45;;;;;;;37.03;16.50;;;7.10;99.90;;;;;;4841676;29;20471;-85
2020/12/21 02:52:22;;;;;;;;;;;;;;;;;;;;;
2020/12/21 02:55:40;;;;;;;;;;;;;;;;;;;;;
2020/12/21 03:09:29;;;;;;;43.63;22.50;;;7.40;99.90;;;;;;4885087;29;20444;-83
2020/12/21 05:20:47;;;;;;;;;;;;;;;;;;;;;
2020/12/21 05:35:33;;;;;;;16.93;10.00;;;6.30;99.90;;;;;;5237126;23;20489;-85
2020/12/21 06:13:29;;;;;;;12.90;8.77;;;5.70;99.90;;;;;;4933324;29;20435;-86
2020/12/21 06:16:10;;;;;;;13.77;8.70;;;5.70;99.90;;;;;;4928210;29;20462;-85
2020/12/21 06:18:38;;;;;;;13.60;9.43;;;5.70;99.90;;;;;;4911345;29;20458;-84
2020/12/21 06:21:06;;;;;;;10.93;9.03;;;5.70;99.90;;;;;;4929611;29;20466;-84
2020/12/21 06:23:42;;;;;;;11.70;8.23;;;5.60;99.90;;;;;;4916631;29;20566;-84
2020/12/21 06:26:09;;;;;;;13.03;8.77;;;5.70;99.90;;;;;;4928819;29;20443;-85
2020/12/21 06:28:35;;;;;;;11.43;8.23;;;5.80;99.90;;;;;;4930519;29;20471;-83
2020/12/21 06:31:57;;;;;;;9.70;8.00;;;5.70;99.90;;;;;;4916821;29;21021;-86
2020/12/21 06:34:39;;;;;;;7.13;6.43;;;5.70;99.90;;;;;;4928485;29;20267;-85
2020/12/21 06:37:21;;;;;;;7.83;6.30;;;5.60;99.90;;;;;;4914127;29;20539;-85
2020/12/21 06:40:07;;;;;;;9.17;6.90;;;5.60;99.90;;;;;;4912813;29;20483;-83
2020/12/21 06:42:33;;;;;;;8.00;5.83;;;5.60;99.90;;;;;;4931369;29;20490;-84
2020/12/21 06:45:12;;;;;;;7.97;5.70;;;5.60;99.90;;;;;;4911858;29;20963;-83
2020/12/21 06:47:38;;;;;;;10.37;6.87;;;5.60;99.90;;;;;;4932824;29;20192;-83
2020/12/21 06:50:07;;;;;;;10.93;6.03;;;5.70;99.90;;;;;;4899329;29;20472;-84
2020/12/21 06:52:51;;;;;;;8.10;6.30;;;5.80;99.90;;;;;;4913465;29;20211;-85
2020/12/21 06:55:43;;;;;;;10.10;6.60;;;5.90;99.90;;;;;;4916397;29;20424;-85
2020/12/21 06:58:43;;;;;;;11.73;6.77;;;5.90;99.90;;;;;;4913868;29;20502;-84
2020/12/21 07:01:20;;;;;;;9.97;6.73;;;5.80;99.90;;;;;;4912293;29;20487;-83
2020/12/21 07:03:49;;;;;;;12.93;6.87;;;5.80;99.90;;;;;;4910550;29;20463;-85
2020/12/21 07:06:15;;;;;;;10.53;6.87;;;5.90;99.90;;;;;;4928859;29;20518;-85
2020/12/21 07:08:41;;;;;;;6.47;5.80;;;5.90;99.90;;;;;;4913389;29;20530;-85
2020/12/21 07:11:21;;;;;;;9.30;6.63;;;5.80;99.90;;;;;;4928467;29;20500;-85
2020/12/21 07:13:56;;;;;;;8.90;6.10;;;5.80;99.90;;;;;;4930426;29;21300;-83
2020/12/21 07:16:30;;;;;;;11.20;5.90;;;5.70;99.90;;;;;;4912831;29;20450;-85
2020/12/21 07:18:58;;;;;;;6.97;6.20;;;5.70;99.90;;;;;;4920908;29;20482;-84
2020/12/21 07:21:24;;;;;;;9.23;7.07;;;5.70;99.90;;;;;;4930741;29;20431;-84
2020/12/21 07:23:56;;;;;;;6.43;5.67;;;5.70;99.90;;;;;;4911414;29;20447;-85
2020/12/21 07:26:24;;;;;;;8.20;6.03;;;5.70;99.90;;;;;;4928513;29;20222;-83
2020/12/21 07:28:59;;;;;;;7.47;5.57;;;5.70;99.90;;;;;;4897726;29;20471;-83
2020/12/21 07:31:33;;;;;;;11.97;6.50;;;5.70;99.90;;;;;;4915641;29;20450;-81
2020/12/21 07:34:02;;;;;;;8.93;7.23;;;5.80;99.90;;;;;;4927833;29;20421;-84
2020/12/21 07:36:38;;;;;;;8.10;6.83;;;5.80;99.90;;;;;;4930596;29;20822;-84
2020/12/21 07:39:34;;;;;;;8.37;6.40;;;5.90;99.90;;;;;;4931291;28;20467;-86
2020/12/21 07:42:08;;;;;;;8.10;5.63;;;5.80;99.90;;;;;;4933282;29;20435;-84
2020/12/21 07:44:43;;;;;;;10.97;6.63;;;5.90;99.90;;;;;;4896685;29;20447;-86
2020/12/21 07:47:33;;;;;;;10.13;6.13;;;6.00;99.90;;;;;;4916764;29;20461;-80
2020/12/21 07:49:59;;;;;;;9.03;6.37;;;6.10;99.90;;;;;;4932250;29;20454;-83
2020/12/21 07:52:28;;;;;;;11.23;6.30;;;6.20;99.90;;;;;;4925830;29;20531;-84
2020/12/21 07:55:10;;;;;;;;;;;;;;;;;;;;;
2020/12/21 07:57:38;;;;;;;7.17;5.50;;;6.10;99.90;;;;;;4929681;29;20446;-83
2020/12/21 08:00:07;;;;;;;7.87;6.20;;;6.00;99.90;;;;;;4926354;29;21491;-83
2020/12/21 08:02:38;;;;;;;8.50;7.00;;;6.10;99.90;;;;;;4930389;29;20461;-85
2020/12/21 08:05:16;;;;;;;12.27;6.30;;;6.10;99.90;;;;;;4928447;29;20448;-83
2020/12/21 08:07:52;;;;;;;9.43;6.17;;;6.20;99.90;;;;;;4917024;29;20468;-83
2020/12/21 08:10:32;;;;;;;7.40;5.40;;;6.30;99.90;;;;;;4900676;29;20458;-83
2020/12/21 08:13:02;;;;;;;10.37;6.70;;;6.20;99.90;;;;;;4928111;29;20776;-84
2020/12/21 08:15:31;;;;;;;9.67;6.30;;;6.30;99.90;;;;;;4926809;29;20895;-83
2020/12/21 08:17:56;;;;;;;6.83;6.00;;;6.30;99.90;;;;;;4925593;29;20770;-84
2020/12/21 08:20:33;;;;;;;9.10;5.83;;;6.50;99.90;;;;;;4923757;29;20455;-85
2020/12/21 08:23:04;;;;;;;9.87;5.90;;;6.60;99.90;;;;;;4926074;29;20192;-84
2020/12/21 08:25:29;;;;;;;7.33;5.57;;;6.70;99.90;;;;;;4927306;29;20436;-80
2020/12/21 08:28:03;;;;;;;7.43;5.77;;;6.70;99.90;;;;;;4910777;29;20714;-82
2020/12/21 08:30:34;;;;;;;8.00;5.90;;;6.80;99.90;;;;;;4908184;29;20695;-85
2020/12/21 08:33:14;;;;;;;10.50;5.90;;;6.80;99.90;;;;;;4911011;29;20462;-80
2020/12/21 08:35:43;;;;;;;7.70;5.10;;;6.90;99.90;;;;;;4898042;29;20440;-82
2020/12/21 08:38:14;;;;;;;6.97;5.80;;;7.00;99.90;;;;;;4930086;29;20427;-83
2020/12/21 08:40:54;;;;;;;6.60;5.17;;;7.00;99.90;;;;;;4913785;29;20452;-85
2020/12/21 08:43:28;;;;;;;7.27;5.63;;;7.10;99.90;;;;;;4922119;29;20471;-86
2020/12/21 08:46:02;;;;;;;8.80;5.03;;;7.10;99.90;;;;;;4924999;29;20521;-85
2020/12/21 08:48:35;;;;;;;6.93;6.13;;;7.10;99.90;;;;;;4926737;29;20443;-84
2020/12/21 08:51:00;;;;;;;7.90;7.10;;;7.10;99.90;;;;;;4914308;29;20522;-82
2020/12/21 08:53:26;;;;;;;14.77;8.67;;;7.20;99.90;;;;;;4876070;29;20530;-85
2020/12/21 08:56:16;;;;;;;18.43;7.50;;;7.30;99.90;;;;;;4927490;29;20216;-84
2020/12/21 08:58:55;;;;;;;17.27;7.10;;;7.40;99.90;;;;;;4927816;29;20208;-85
2020/12/21 09:01:47;;;;;;;8.03;6.97;;;7.40;99.90;;;;;;4913082;29;20440;-85
2020/12/21 09:04:22;;;;;;;8.93;6.83;;;7.50;99.90;;;;;;4924648;29;20427;-84
2020/12/21 09:06:57;;;;;;;16.90;7.27;;;7.70;99.90;;;;;;4928076;29;20431;-83
2020/12/21 09:09:29;;;;;;;9.53;7.30;;;7.70;99.90;;;;;;4911044;29;20456;-84
2020/12/21 09:12:07;;;;;;;12.83;5.80;;;7.90;99.90;;;;;;4925330;29;20483;-83
2020/12/21 09:14:36;;;;;;;7.73;6.93;;;7.80;99.90;;;;;;4897185;29;20564;-83
2020/12/21 09:17:08;;;;;;;9.87;7.60;;;7.80;99.90;;;;;;4925961;29;20869;-85
2020/12/21 09:19:36;;;;;;;12.20;7.00;;;7.90;99.90;;;;;;4925968;29;20485;-85
2020/12/21 09:22:27;;;;;;;14.00;7.60;;;8.00;99.90;;;;;;4904501;29;20549;-83
2020/12/21 09:24:59;;;;;;;10.70;5.53;;;8.10;99.90;;;;;;4920956;29;20450;-84
2020/12/21 09:27:27;;;;;;;8.90;6.30;;;8.10;99.90;;;;;;4908423;29;20460;-84
2020/12/21 09:29:58;;;;;;;8.87;5.93;;;8.10;99.90;;;;;;4923417;29;21065;-84
2020/12/21 09:32:24;;;;;;;6.30;5.70;;;8.10;99.90;;;;;;4911751;29;20531;-84
2020/12/21 09:35:08;;;;;;;8.97;6.13;;;8.20;99.90;;;;;;4911640;29;21903;-85
2020/12/21 09:37:34;;;;;;;7.00;5.20;;;8.20;99.90;;;;;;4911104;29;20251;-82
2020/12/21 09:40:11;;;;;;;12.00;5.60;;;8.30;99.90;;;;;;4896427;29;20476;-84
2020/12/21 09:42:42;;;;;;;9.87;5.27;;;8.40;99.90;;;;;;4914232;29;20193;-83
2020/12/21 09:45:10;;;;;;;6.50;5.37;;;8.40;99.90;;;;;;4924266;29;20423;-84
2020/12/21 09:47:36;;;;;;;6.33;5.40;;;8.50;99.90;;;;;;4926210;29;20665;-85
2020/12/21 09:50:02;;;;;;;8.10;5.67;;;8.50;99.90;;;;;;4911994;29;20467;-85
2020/12/21 09:52:31;;;;;;;7.90;5.50;;;8.60;99.90;;;;;;4928974;29;20260;-84
2020/12/21 09:55:02;;;;;;;9.30;8.40;;;8.70;99.90;;;;;;4911707;29;20483;-83
2020/12/21 09:57:53;;;;;;;7.40;5.83;;;8.70;99.90;;;;;;4925356;29;20540;-83
2020/12/21 10:00:34;;;;;;;9.13;6.37;;;8.80;99.90;;;;;;4925054;29;20469;-82
2020/12/21 10:03:15;;;;;;;7.77;6.33;;;8.80;99.90;;;;;;4911369;29;20518;-83
2020/12/21 10:05:51;;;;;;;;;;;;;;;;;;;;;
2020/12/21 10:08:39;;;;;;;6.20;5.57;;;8.80;99.90;;;;;;4927833;29;20423;-81
2020/12/21 10:11:40;;;;;;;7.03;6.00;;;8.90;99.90;;;;;;4931829;29;21234;-82
2020/12/21 10:14:31;;;;;;;13.40;7.60;;;8.80;99.90;;;;;;4903480;29;20437;-82
2020/12/21 10:16:57;;;;;;;10.00;7.03;;;8.90;99.90;;;;;;4927010;29;20478;-83
2020/12/21 10:19:34;;;;;;;7.77;6.50;;;8.90;99.90;;;;;;4926571;29;20475;-82
2020/12/21 10:22:23;;;;;;;11.90;9.27;;;8.90;99.90;;;;;;4909745;29;20206;-82
2020/12/21 10:25:00;;;;;;;12.73;10.00;;;8.90;99.90;;;;;;4927690;29;20723;-82
2020/12/21 10:27:33;;;;;;;17.07;9.70;;;8.80;99.90;;;;;;4909716;29;20427;-80
2020/12/21 10:30:15;;;;;;;11.60;9.03;;;8.90;99.90;;;;;;4925524;29;20470;-80
2020/12/21 10:32:44;;;;;;;11.97;8.50;;;8.90;99.90;;;;;;4930639;29;20444;-83
2020/12/21 10:35:20;;;;;;;8.60;5.83;;;9.00;99.90;;;;;;4929697;29;20430;-83
2020/12/21 10:37:48;;;;;;;5.97;5.30;;;9.00;99.90;;;;;;4898612;29;20558;-80
2020/12/21 10:40:27;;;;;;;5.80;4.73;;;9.10;99.90;;;;;;4899264;29;20464;-81
2020/12/21 10:42:58;;;;;;;8.10;5.50;;;9.20;99.90;;;;;;4914443;29;20450;-80
2020/12/21 10:45:30;;;;;;;6.13;4.80;;;9.40;99.90;;;;;;4931092;29;20425;-82
2020/12/21 10:48:15;;;;;;;7.60;5.27;;;9.40;99.90;;;;;;4926713;29;20439;-82
2020/12/21 10:51:22;;;;;;;17.13;7.20;;;9.60;99.90;;;;;;4916389;29;20594;-80
2020/12/21 10:53:54;;;;;;;7.77;5.30;;;9.60;99.90;;;;;;4909330;29;20436;-79
2020/12/21 10:56:38;;;;;;;10.37;5.70;;;9.60;99.90;;;;;;4929476;29;20915;-80
2020/12/21 10:59:12;;;;;;;7.13;5.00;;;9.70;99.90;;;;;;4940364;23;20493;-82
2020/12/21 11:01:47;;;;;;;8.00;5.27;;;9.60;99.90;;;;;;4953537;28;20499;-80
2020/12/21 11:04:18;;;;;;;5.20;4.60;;;9.60;99.90;;;;;;4967530;28;20566;-80
2020/12/21 11:07:14;;;;;;;5.00;4.30;;;9.60;99.90;;;;;;4952739;28;20425;-81
2020/12/21 11:09:40;;;;;;;6.20;5.10;;;9.60;99.90;;;;;;4946502;28;20845;-79
2020/12/21 11:12:23;;;;;;;5.40;4.87;;;9.60;99.90;;;;;;4933327;28;20438;-81
2020/12/21 11:15:01;;;;;;;5.83;4.50;;;9.50;99.90;;;;;;4924173;28;20948;-80
2020/12/21 11:17:55;;;;;;;5.43;4.30;;;9.40;99.90;;;;;;4917226;28;20446;-81
2020/12/21 11:20:46;;;;;;;4.80;4.17;;;9.40;99.90;;;;;;4929989;28;20507;-81
2020/12/21 11:23:31;;;;;;;6.40;5.20;;;9.30;99.90;;;;;;4929501;28;20418;-81
2020/12/21 11:25:57;;;;;;;6.13;4.67;;;9.20;99.90;;;;;;4930909;28;20587;-81
2020/12/21 11:28:34;;;;;;;7.93;5.00;;;9.10;99.90;;;;;;4919509;28;20442;-81
2020/12/21 11:30:59;;;;;;;5.30;4.70;;;9.20;99.90;;;;;;4933340;28;20275;-80
2020/12/21 11:33:35;;;;;;;8.03;5.30;;;9.40;99.90;;;;;;4946297;28;20519;-81
2020/12/21 11:36:03;;;;;;;6.33;4.70;;;9.60;99.90;;;;;;4930913;28;20750;-82
2020/12/21 11:38:34;;;;;;;8.90;5.73;;;9.90;99.90;;;;;;4918004;28;20471;-80
2020/12/21 11:40:59;;;;;;;6.30;5.57;;;10.10;99.90;;;;;;4937581;28;20434;-81
2020/12/21 11:46:51;;;;;;;6.57;4.83;;;10.00;99.90;;;;;;4948641;28;20629;-82
2020/12/21 11:49:25;;;;;;;7.93;4.57;;;9.90;99.90;;;;;;4947761;28;20454;-83
2020/12/21 12:10:20;;;;;;;5.90;5.30;;;9.50;99.90;;;;;;4842830;29;20958;-83
2020/12/21 12:27:16;;;;;;;;;;;;;;;;;;;;;
2020/12/21 12:33:48;;;;;;;9.40;5.27;;;10.30;99.90;;;;;;4865746;29;20497;-82
2020/12/21 12:41:09;;;;;;;7.47;4.60;;;10.90;99.90;;;;;;4880564;29;20554;-83
2020/12/21 12:47:13;;;;;;;7.60;4.57;;;11.50;99.90;;;;;;4811641;29;20437;-82
2020/12/21 13:20:27;;;;;;;;;;;;;;;;;;;;;
2020/12/21 13:22:54;;;;;;;6.10;4.50;;;11.50;99.90;;;;;;4884133;28;20462;-82
2020/12/21 13:37:26;;;;;;;;;;;;;;;;;;;;;
2020/12/21 13:40:17;;;;;;;6.97;4.60;;;11.70;99.90;;;;;;4941505;28;20493;-80
2020/12/21 13:47:12;;;;;;;7.90;5.50;;;11.90;99.90;;;;;;4870396;29;20446;-84
2020/12/21 13:57:08;;;;;;;5.73;4.33;;;12.00;99.90;;;;;;4818966;29;20817;-83
2020/12/21 13:59:40;;;;;;;6.63;3.30;;;12.10;99.90;;;;;;4802812;29;20546;-85
2020/12/21 14:08:58;;;;;;;9.80;6.27;;;12.20;99.90;;;;;;4850189;29;20461;-85
2020/12/21 14:19:15;;;;;;;4.10;2.90;;;12.00;99.90;;;;;;4867543;29;20491;-87
2020/12/21 14:21:43;;;;;;;5.00;3.23;;;12.00;99.90;;;;;;4873625;29;20590;-86
2020/12/21 14:24:12;;;;;;;6.73;3.37;;;12.00;99.90;;;;;;4968033;28;20414;-85
2020/12/21 14:26:40;;;;;;;4.83;3.40;;;12.00;99.90;;;;;;4970190;28;20427;-86
2020/12/21 14:29:08;;;;;;;3.90;2.77;;;11.90;99.90;;;;;;4942412;28;20469;-85
2020/12/21 14:31:36;;;;;;;4.60;3.40;;;11.90;99.90;;;;;;4961802;28;20439;-85
2020/12/21 14:34:08;;;;;;;10.80;3.50;;;11.90;99.90;;;;;;4949693;28;20513;-86
2020/12/21 14:36:37;;;;;;;5.83;3.60;;;11.80;99.90;;;;;;4943506;28;20458;-85
2020/12/21 14:39:05;;;;;;;5.53;3.30;;;11.80;99.90;;;;;;4944653;28;20458;-86
2020/12/21 14:41:32;;;;;;;8.47;3.47;;;11.80;99.90;;;;;;4968620;28;20497;-85
2020/12/21 14:43:59;;;;;;;8.77;3.90;;;11.70;99.90;;;;;;4937737;28;20426;-87
2020/12/21 14:46:25;;;;;;;6.17;4.40;;;11.70;99.90;;;;;;4946729;28;20446;-85
2020/12/21 14:48:56;;;;;;;5.47;3.60;;;11.60;99.90;;;;;;4963764;28;20498;-84
2020/12/21 14:51:23;;;;;;;5.13;3.83;;;11.60;99.90;;;;;;4942609;28;20442;-86
2020/12/21 14:54:20;;;;;;;7.37;3.77;;;11.50;99.90;;;;;;4960427;28;20442;-83
2020/12/21 14:56:54;;;;;;;5.83;3.10;;;11.50;99.90;;;;;;4961209;28;20506;-85
2020/12/21 14:59:22;;;;;;;7.27;4.70;;;11.30;99.90;;;;;;4966496;28;20967;-84
2020/12/21 15:01:48;;;;;;;7.43;5.13;;;11.30;99.90;;;;;;4945388;28;20511;-86
2020/12/21 15:04:14;;;;;;;9.07;5.40;;;11.20;99.90;;;;;;4964565;28;20904;-85
2020/12/21 15:06:39;;;;;;;8.10;5.33;;;11.10;99.90;;;;;;4949877;28;20857;-86
2020/12/21 15:09:05;;;;;;;7.17;5.47;;;11.10;99.90;;;;;;4944974;28;20215;-84
2020/12/21 15:11:32;;;;;;;6.97;5.20;;;11.00;99.90;;;;;;4963685;28;20238;-86
2020/12/21 15:14:06;;;;;;;5.40;4.67;;;11.10;99.90;;;;;;4964419;28;20181;-86
2020/12/21 15:16:31;;;;;;;5.43;4.77;;;11.00;99.90;;;;;;4950512;28;20437;-86
2020/12/21 15:18:57;;;;;;;5.53;4.80;;;10.90;99.90;;;;;;4943430;28;20505;-86
2020/12/21 15:21:23;;;;;;;5.40;4.40;;;10.90;99.90;;;;;;4966889;28;20203;-87
2020/12/21 15:23:49;;;;;;;10.60;5.40;;;10.80;99.90;;;;;;4963780;28;20179;-86
2020/12/21 15:26:14;;;;;;;11.50;5.60;;;10.80;99.90;;;;;;4964684;28;20415;-87
2020/12/21 15:28:40;;;;;;;8.17;6.70;;;10.70;99.90;;;;;;4946592;28;20199;-86
2020/12/21 15:31:06;;;;;;;6.67;5.97;;;10.70;99.90;;;;;;4962264;28;20259;-86
2020/12/21 15:33:31;;;;;;;7.77;5.60;;;10.70;99.90;;;;;;4921659;28;20278;-85
2020/12/21 15:35:57;;;;;;;7.10;5.40;;;10.70;99.90;;;;;;4966586;28;20195;-85
2020/12/21 15:38:22;;;;;;;6.50;5.10;;;10.70;99.90;;;;;;4964446;28;20206;-85
2020/12/21 15:40:52;;;;;;;7.67;5.87;;;10.60;99.90;;;;;;4957913;28;20263;-86
2020/12/21 15:43:18;;;;;;;8.63;5.07;;;10.60;99.90;;;;;;4968593;28;20271;-86
2020/12/21 15:45:44;;;;;;;5.47;4.80;;;10.50;99.90;;;;;;4944136;28;20424;-85
2020/12/21 15:48:11;;;;;;;7.17;5.77;;;10.40;99.90;;;;;;4938743;28;20439;-86
2020/12/21 15:50:36;;;;;;;5.87;5.27;;;10.40;99.90;;;;;;4962922;28;20476;-86
2020/12/21 15:53:02;;;;;;;7.70;5.67;;;10.30;99.90;;;;;;4937116;28;20427;-83
2020/12/21 15:55:28;;;;;;;7.97;5.63;;;10.40;99.90;;;;;;4941414;28;20198;-87
2020/12/21 15:57:54;;;;;;;6.20;5.57;;;10.40;99.90;;;;;;4941529;28;21006;-85
2020/12/21 16:00:19;;;;;;;7.03;5.53;;;10.40;99.90;;;;;;4941938;28;20234;-85
2020/12/21 16:02:46;;;;;;;6.93;5.33;;;10.40;99.90;;;;;;4962159;28;20203;-85
2020/12/21 16:05:12;;;;;;;7.23;5.80;;;10.30;99.90;;;;;;4967587;28;20262;-83
2020/12/21 16:07:38;;;;;;;9.40;6.13;;;10.30;99.90;;;;;;4963044;28;20489;-84
2020/12/21 16:10:12;;;;;;;9.30;6.00;;;10.30;99.90;;;;;;4940592;28;20221;-86
2020/12/21 16:12:39;;;;;;;6.70;5.73;;;10.40;99.90;;;;;;4943128;28;20434;-84
2020/12/21 16:15:06;;;;;;;10.30;5.67;;;10.30;99.90;;;;;;4965070;28;20818;-86
2020/12/21 16:17:32;;;;;;;7.73;5.53;;;10.30;99.90;;;;;;4957434;28;21306;-86
2020/12/21 16:20:01;;;;;;;10.40;6.47;;;10.40;99.90;;;;;;4941788;28;20502;-85
2020/12/21 16:22:27;;;;;;;6.57;5.80;;;10.30;99.90;;;;;;4939149;28;20447;-86
2020/12/21 16:24:52;;;;;;;9.63;6.80;;;10.30;99.90;;;;;;4941099;28;20489;-84
2020/12/21 16:27:18;;;;;;;11.50;6.70;;;10.30;99.90;;;;;;4931503;28;20180;-86
2020/12/21 16:29:45;;;;;;;8.50;7.00;;;10.30;99.90;;;;;;4957857;28;20262;-86
2020/12/21 16:32:13;;;;;;;10.10;7.33;;;10.40;99.90;;;;;;4943491;28;20738;-86
2020/12/21 16:34:39;;;;;;;8.90;6.40;;;10.40;99.90;;;;;;4929140;28;20426;-85
2020/12/21 16:37:04;;;;;;;7.80;6.50;;;10.30;99.90;;;;;;4942011;28;20910;-86
2020/12/21 16:39:30;;;;;;;10.33;6.70;;;10.30;99.90;;;;;;4960289;28;20218;-87
2020/12/21 16:42:00;;;;;;;8.00;6.20;;;10.30;99.90;;;;;;4950717;28;20767;-86
2020/12/21 16:44:26;;;;;;;10.10;6.60;;;10.20;99.90;;;;;;4957395;28;20429;-85
2020/12/21 16:46:53;;;;;;;8.50;6.53;;;10.20;99.90;;;;;;4955778;28;20451;-85
2020/12/21 16:49:19;;;;;;;7.00;5.70;;;10.10;99.90;;;;;;4950305;28;20456;-85
2020/12/21 16:51:48;;;;;;;6.60;5.67;;;10.10;99.90;;;;;;4957792;28;20461;-86
2020/12/21 16:54:14;;;;;;;12.40;7.57;;;10.10;99.90;;;;;;4958870;28;20430;-86
2020/12/21 16:56:39;;;;;;;10.90;6.53;;;10.10;99.90;;;;;;4958955;28;21508;-84
2020/12/21 16:59:06;;;;;;;8.47;5.80;;;10.20;99.90;;;;;;4955486;28;20481;-86
2020/12/21 17:01:32;;;;;;;5.10;4.30;;;10.20;99.90;;;;;;4944302;28;20222;-86
2020/12/21 17:03:58;;;;;;;7.00;4.90;;;10.20;99.90;;;;;;4942411;28;20423;-86
2020/12/21 17:06:24;;;;;;;5.03;4.20;;;10.20;99.90;;;;;;4944053;28;20588;-86
2020/12/21 17:08:50;;;;;;;8.80;5.90;;;10.20;99.90;;;;;;4961482;28;20538;-85
2020/12/21 17:11:19;;;;;;;6.30;4.50;;;10.30;99.90;;;;;;4962485;28;20187;-86
2020/12/21 17:13:45;;;;;;;4.53;3.30;;;10.30;99.90;;;;;;4937297;28;20191;-86
2020/12/21 17:16:11;;;;;;;4.20;3.50;;;10.30;99.90;;;;;;4958572;28;20999;-86
2020/12/21 17:18:37;;;;;;;3.20;2.80;;;10.40;99.90;;;;;;4960726;28;20511;-85
2020/12/21 17:21:04;;;;;;;3.73;3.23;;;10.40;99.90;;;;;;4947994;28;20187;-86
2020/12/21 17:23:30;;;;;;;4.10;3.40;;;10.50;99.90;;;;;;4946026;28;20433;-86
2020/12/21 17:25:55;;;;;;;4.90;3.30;;;10.60;99.90;;;;;;4959335;28;20555;-85
2020/12/21 17:28:21;;;;;;;5.13;3.40;;;10.60;99.90;;;;;;4944934;28;20198;-86
2020/12/21 17:30:47;;;;;;;5.60;4.63;;;10.60;99.90;;;;;;4944007;28;20229;-85
2020/12/21 17:33:13;;;;;;;3.30;3.00;;;10.70;99.90;;;;;;4947171;28;20191;-86
2020/12/21 17:35:39;;;;;;;3.90;3.60;;;10.60;99.90;;;;;;4964080;28;20194;-86
2020/12/21 17:38:05;;;;;;;5.80;3.47;;;10.70;99.90;;;;;;4931200;28;20204;-86
2020/12/21 17:40:33;;;;;;;4.50;3.20;;;10.70;99.90;;;;;;4928779;28;20474;-86
2020/12/21 17:42:59;;;;;;;7.07;4.07;;;10.70;99.90;;;;;;4941800;28;20447;-86
2020/12/21 17:45:25;;;;;;;4.17;3.20;;;10.70;99.90;;;;;;4946190;28;20948;-87
2020/12/21 17:47:50;;;;;;;4.33;3.60;;;10.70;99.90;;;;;;4965725;28;20215;-87
2020/12/21 17:50:16;;;;;;;4.90;3.80;;;10.70;99.90;;;;;;4964884;28;20297;-86
2020/12/21 17:52:41;;;;;;;4.90;3.77;;;10.60;99.90;;;;;;4948333;28;20198;-85
2020/12/21 17:55:09;;;;;;;5.00;3.87;;;10.50;99.90;;;;;;4965644;28;20186;-87
2020/12/21 17:57:38;;;;;;;6.03;3.93;;;10.50;99.90;;;;;;4932791;28;20282;-85
2020/12/21 18:00:08;;;;;;;7.00;4.77;;;10.40;99.90;;;;;;4963082;28;20573;-85
2020/12/21 18:02:34;;;;;;;5.00;3.93;;;10.40;99.90;;;;;;4941821;28;21044;-86
2020/12/21 18:05:00;;;;;;;6.57;4.17;;;10.50;99.90;;;;;;4930585;28;20574;-82
2020/12/21 18:07:33;;;;;;;6.40;4.60;;;10.50;99.90;;;;;;4944112;28;20450;-86
2020/12/21 18:09:59;;;;;;;6.33;4.17;;;10.50;99.90;;;;;;4947022;28;20203;-86
2020/12/21 18:12:26;;;;;;;6.40;4.73;;;10.50;99.90;;;;;;4950674;28;20859;-83
2020/12/21 18:14:52;;;;;;;5.57;4.37;;;10.50;99.90;;;;;;4958880;28;20433;-87
2020/12/21 18:17:22;;;;;;;6.50;4.53;;;10.40;99.90;;;;;;4964980;28;20437;-85
2020/12/21 18:19:48;;;;;;;6.63;4.47;;;10.30;99.90;;;;;;4963895;28;20496;-85
2020/12/21 18:22:14;;;;;;;4.60;4.10;;;10.40;99.90;;;;;;4961101;28;20554;-86
2020/12/21 18:24:40;;;;;;;5.07;4.50;;;10.30;99.90;;;;;;4946684;28;20435;-85
2020/12/21 18:27:06;;;;;;;4.93;4.43;;;10.30;99.90;;;;;;4949883;28;20546;-87
2020/12/21 18:29:35;;;;;;;6.03;4.80;;;10.30;99.90;;;;;;4947442;28;20233;-85
2020/12/21 18:32:01;;;;;;;4.93;4.50;;;10.20;99.90;;;;;;4961853;28;20542;-87
2020/12/21 18:34:32;;;;;;;6.20;5.40;;;10.00;99.90;;;;;;4951396;28;20419;-85
2020/12/21 18:37:02;;;;;;;5.53;4.53;;;9.90;99.90;;;;;;4950276;28;20472;-87
2020/12/21 18:39:36;;;;;;;5.67;3.63;;;9.90;99.90;;;;;;4926547;28;20482;-87
2020/12/21 18:42:02;;;;;;;3.97;3.57;;;9.80;99.90;;;;;;4964847;28;20426;-85
2020/12/21 18:45:01;;;;;;;4.20;3.50;;;9.70;99.90;;;;;;4941769;28;21005;-86
2020/12/21 18:48:03;;;;;;;3.20;2.70;;;9.70;99.90;;;;;;4940113;28;20192;-86
2020/12/21 18:50:39;;;;;;;5.83;2.70;;;9.60;99.90;;;;;;4957645;28;20500;-88
2020/12/21 18:53:34;;;;;;;3.57;2.57;;;9.50;99.90;;;;;;4926695;28;20470;-86
2020/12/21 18:56:11;;;;;;;3.17;2.50;;;9.60;99.90;;;;;;4956348;28;20423;-88
2020/12/21 18:58:45;;;;;;;2.17;1.97;;;9.50;99.90;;;;;;4943781;28;20473;-84
2020/12/21 19:01:14;;;;;;;3.73;2.13;;;9.60;99.90;;;;;;4941339;28;20473;-86
2020/12/21 19:03:54;;;;;;;1.60;1.50;;;9.70;99.90;;;;;;4940207;28;20739;-86
2020/12/21 19:17:06;;;;;;;2.27;1.70;;;10.00;99.90;;;;;;4896423;29;21032;-86
2020/12/21 19:20:37;;;;;;;;;;;;;;;;;;;;;
2020/12/21 19:24:02;;;;;;;2.10;1.40;;;10.10;99.90;;;;;;4834929;29;20449;-84
2020/12/21 19:27:21;;;;;;;2.20;2.00;;;10.10;99.90;;;;;;4799940;29;20508;-86
2020/12/21 19:30:31;;;;;;;1.73;1.60;;;10.20;99.90;;;;;;4783790;29;20470;-82
2020/12/21 19:33:28;;;;;;;1.57;1.40;;;10.20;99.90;;;;;;4818200;29;20445;-85
2020/12/21 19:35:59;;;;;;;3.30;1.60;;;10.20;99.90;;;;;;4811447;29;21197;-86
2020/12/21 19:38:43;;;;;;;1.57;1.43;;;10.20;99.90;;;;;;4939235;28;20452;-86
2020/12/21 19:41:09;;;;;;;5.20;1.87;;;10.20;99.90;;;;;;4925654;28;21345;-86
2020/12/21 19:43:39;;;;;;;2.23;1.30;;;10.20;99.90;;;;;;4931088;28;20436;-86
2020/12/21 19:46:38;;;;;;;1.87;1.67;;;10.20;99.90;;;;;;4935141;28;20430;-86
2020/12/21 19:49:28;;;;;;;1.60;1.40;;;10.20;99.90;;;;;;4934881;28;21129;-87
2020/12/21 19:52:54;;;;;;;1.73;1.27;;;10.10;99.90;;;;;;4894096;29;20728;-85
2020/12/21 19:55:46;;;;;;;1.40;1.30;;;10.20;99.90;;;;;;4931911;28;20428;-89
2020/12/21 19:58:30;;;;;;;;;;;;;;;;;;;;;
2020/12/21 20:04:54;;;;;;;2.07;1.50;;;10.20;99.90;;;;;;4937129;28;20791;-86
2020/12/21 20:07:37;;;;;;;1.60;1.40;;;10.30;99.90;;;;;;4936745;28;21222;-85
2020/12/21 20:10:27;;;;;;;1.93;1.47;;;10.20;99.90;;;;;;4931062;28;20455;-87
2020/12/21 20:12:56;;;;;;;1.80;1.40;;;10.20;99.90;;;;;;4931616;28;20455;-84
2020/12/21 20:15:24;;;;;;;1.70;1.40;;;10.20;99.90;;;;;;4937520;28;20518;-84
2020/12/21 20:17:50;;;;;;;1.60;1.40;;;10.20;99.90;;;;;;4934692;28;20442;-84
2020/12/21 20:20:21;;;;;;;1.40;1.20;;;10.20;99.90;;;;;;4919209;28;20576;-84
2020/12/21 20:22:52;;;;;;;1.53;1.33;;;10.20;99.90;;;;;;4951869;28;20202;-84
2020/12/21 20:25:18;;;;;;;1.30;1.20;;;10.20;99.90;;;;;;4935297;28;20426;-84
2020/12/21 20:27:44;;;;;;;1.80;1.70;;;10.20;99.90;;;;;;4917740;28;20438;-84
2020/12/21 20:30:22;;;;;;;2.87;1.60;;;10.10;99.90;;;;;;4937787;28;20759;-85
2020/12/21 20:33:18;;;;;;;1.20;1.00;;;10.10;99.90;;;;;;4934730;28;20206;-85
2020/12/21 20:36:06;;;;;;;2.90;1.33;;;10.00;99.90;;;;;;4928662;28;20449;-84
2020/12/21 20:38:39;;;;;;;2.10;1.90;;;10.00;99.90;;;;;;4922028;29;20457;-84
2020/12/21 20:41:14;;;;;;;2.40;2.20;;;9.90;99.90;;;;;;4934693;28;20455;-85
2020/12/21 21:12:25;;;;;;;1.30;1.10;;;10.30;99.90;;;;;;5416408;23;20500;-85
2020/12/21 21:30:09;;;;;;;1.83;1.67;;;10.20;99.90;;;;;;5117486;23;20524;-85
2020/12/21 21:33:20;;;;;;;1.83;1.20;;;10.30;99.90;;;;;;4965345;28;20450;-84
2020/12/21 22:21:35;;;;;;;1.30;1.10;;;10.70;99.90;;;;;;4911437;26;20491;-83
2020/12/21 22:24:29;;;;;;;2.17;1.30;;;10.70;99.90;;;;;;4903743;29;20453;-84
2020/12/21 22:27:20;;;;;;;;;;;;;;;;;;;;;
2020/12/21 22:29:53;;;;;;;1.53;1.37;;;10.60;99.90;;;;;;4900503;29;20482;-83
2020/12/21 22:35:46;;;;;;;1.83;1.10;;;10.70;99.90;;;;;;4840922;29;20483;-82
2020/12/21 22:38:59;;;;;;;1.50;1.40;;;10.70;99.90;;;;;;4916420;29;21088;-83
2020/12/21 22:42:20;;;;;;;1.67;1.00;;;10.80;99.90;;;;;;4915281;29;20538;-83